Decoded Metar for LFMN (NICE in FRANCE) (IATA:NCE) | Meteo·Mobile Aviation Weather
aviador You're here:

LFMN Decoded Metar

NICE in FRANCE
Report Time2018-11-12 22:00:00
UTC Time2018-11-12 22:17:29
Flight Rules vfr VFR
Wind340° at 07 kt
W.Decomp.*RWY 04: 3.4 kt HW 6.1 kt LCW
W.Rank340° ranks 2
Current wind is below 340° avg. (7.2)
Visibility9999 m
Phenomena:N/A
Clouds:Broken 066 Hf
Expected CloudBase > 1,200 ft AGL from Temp-Dew spread
Ceiling6,600 ft
Temp15°C (ISA 0)
Dew Point12°C (82% RH)
AAT13.1°C
QNH1026 hPa
Density Alt-210 ft
Elevation33 ft
Report Wrong Elevation
Raw Report
METAR LFMN 122200Z 34007KT 9999 BKN066 15/12 Q1026 NOSIG=

Extra information for LFMN:More info

Metar Taf Metar & Taf Last 4 Metars F.Rules Stats Wind Profile Meteogram Temp Stats Airport Information Weather charts Add Link Nearby VenuesMetar ALERT Operation Metar Decoded Social comments